createdAt,value
2019-01-02T00:00:38.010Z,4.8
2019-01-02T00:01:38.732Z,4.8
2019-01-02T00:02:39.443Z,4.8
2019-01-02T00:03:40.146Z,4.8
2019-01-02T00:04:41.306Z,4.8
2019-01-02T00:05:42.006Z,4.8
2019-01-02T00:06:42.711Z,4.8
2019-01-02T00:07:43.761Z,4.9
2019-01-02T00:08:44.460Z,4.8
2019-01-02T00:09:45.218Z,4.8
2019-01-02T00:10:46.025Z,4.8
2019-01-02T00:11:46.743Z,4.8
2019-01-02T00:12:47.691Z,4.8
2019-01-02T00:13:48.523Z,4.9
2019-01-02T00:14:49.233Z,4.9
2019-01-02T00:15:49.947Z,4.9
2019-01-02T00:16:50.673Z,4.8
2019-01-02T00:17:51.387Z,4.9
2019-01-02T00:18:52.088Z,4.8
2019-01-02T00:19:52.865Z,4.8
2019-01-02T00:20:53.618Z,4.9
2019-01-02T00:21:54.354Z,4.8
2019-01-02T00:22:55.048Z,4.7
2019-01-02T00:23:55.756Z,4.8
2019-01-02T00:24:56.468Z,4.7
2019-01-02T00:25:57.192Z,4.6
2019-01-02T00:26:57.908Z,4.6
2019-01-02T00:27:58.619Z,4.5
2019-01-02T00:28:59.342Z,4.4
2019-01-02T00:30:00.226Z,4.3
2019-01-02T00:31:00.913Z,4.2
2019-01-02T00:32:01.619Z,4.3
2019-01-02T00:33:02.343Z,4.3
2019-01-02T00:34:03.039Z,4.3
2019-01-02T00:35:03.774Z,4.2
2019-01-02T00:36:04.493Z,4.1
2019-01-02T00:37:05.196Z,4.1
2019-01-02T00:38:05.919Z,4.1
2019-01-02T00:39:06.642Z,4.0
2019-01-02T00:40:07.390Z,4.0
2019-01-02T00:41:08.203Z,3.9
2019-01-02T00:42:09.969Z,3.9
2019-01-02T00:43:10.860Z,3.8
2019-01-02T00:44:11.878Z,3.8
2019-01-02T00:45:12.987Z,3.9
2019-01-02T00:46:13.696Z,3.8
2019-01-02T00:47:15.019Z,3.8
2019-01-02T00:48:16.027Z,3.8
2019-01-02T00:49:16.738Z,3.7
2019-01-02T00:50:17.449Z,3.7
2019-01-02T00:51:18.155Z,3.7
2019-01-02T00:52:18.859Z,3.6
2019-01-02T00:53:19.838Z,3.6
2019-01-02T00:54:20.536Z,3.6
2019-01-02T00:55:21.246Z,3.5
2019-01-02T00:56:21.962Z,3.6
2019-01-02T00:57:22.676Z,3.5
2019-01-02T00:58:23.489Z,3.5
2019-01-02T00:59:24.201Z,3.4
2019-01-02T01:00:24.908Z,3.5
2019-01-02T01:01:25.611Z,3.4
2019-01-02T01:02:26.327Z,3.5
2019-01-02T01:03:27.041Z,3.4
2019-01-02T01:04:27.740Z,3.4
2019-01-02T01:05:28.450Z,3.4
2019-01-02T01:06:29.173Z,3.5
2019-01-02T01:07:30.377Z,3.3
2019-01-02T01:08:31.091Z,3.5
2019-01-02T01:09:32.811Z,3.5
2019-01-02T01:10:33.596Z,3.6
2019-01-02T01:11:34.792Z,3.6
2019-01-02T01:12:35.612Z,3.6
2019-01-02T01:13:36.314Z,3.6
2019-01-02T01:14:37.149Z,3.8
2019-01-02T01:15:38.403Z,3.9
2019-01-02T01:16:39.104Z,3.9
2019-01-02T01:17:39.808Z,3.8
2019-01-02T01:18:40.514Z,3.8
2019-01-02T01:19:41.215Z,3.8
2019-01-02T01:20:42.030Z,3.9
2019-01-02T01:21:42.736Z,3.9
2019-01-02T01:22:43.459Z,3.9
2019-01-02T01:23:44.166Z,3.9
2019-01-02T01:24:44.882Z,3.9
2019-01-02T01:25:45.599Z,3.9
2019-01-02T01:26:46.301Z,3.9
2019-01-02T01:27:47.018Z,4.0
2019-01-02T01:28:47.730Z,4.0
2019-01-02T01:29:48.448Z,4.0
2019-01-02T01:30:49.157Z,4.0
2019-01-02T01:31:49.863Z,4.0
2019-01-02T01:32:50.570Z,4.0
2019-01-02T01:33:51.286Z,4.1
2019-01-02T01:34:51.999Z,4.1
2019-01-02T01:35:52.705Z,4.3
2019-01-02T01:36:53.422Z,4.3
2019-01-02T01:37:54.144Z,4.2
2019-01-02T01:38:54.891Z,4.3
2019-01-02T01:39:55.593Z,4.3
2019-01-02T01:40:56.302Z,4.3
2019-01-02T01:41:57.014Z,4.4
2019-01-02T01:42:57.722Z,4.4
2019-01-02T01:43:58.437Z,4.5
2019-01-02T01:44:59.152Z,4.4
2019-01-02T01:45:59.855Z,4.6
2019-01-02T01:47:00.582Z,4.5
2019-01-02T01:48:01.298Z,4.6
2019-01-02T01:49:02.009Z,4.6
2019-01-02T01:50:02.715Z,4.7
2019-01-02T01:51:03.577Z,4.7
2019-01-02T01:52:04.284Z,4.7
2019-01-02T01:53:05.001Z,4.7
2019-01-02T01:54:05.714Z,4.8
2019-01-02T01:55:06.438Z,4.6
2019-01-02T01:56:07.194Z,4.8
2019-01-02T01:57:07.895Z,4.7
2019-01-02T01:58:08.612Z,4.7
2019-01-02T01:59:09.329Z,4.8
2019-01-02T02:00:10.046Z,4.6
2019-01-02T02:01:10.753Z,4.8
2019-01-02T02:02:11.467Z,4.7
2019-01-02T02:03:12.172Z,4.8
2019-01-02T02:04:12.875Z,4.7
2019-01-02T02:05:13.589Z,4.6
2019-01-02T02:06:14.296Z,4.6
2019-01-02T02:07:15.016Z,4.6
2019-01-02T02:08:15.768Z,4.6
2019-01-02T02:09:16.471Z,4.6
2019-01-02T02:10:17.182Z,4.6
2019-01-02T02:11:17.897Z,4.6
2019-01-02T02:12:18.606Z,4.6
2019-01-02T02:13:19.313Z,4.6
2019-01-02T02:14:20.134Z,4.5
2019-01-02T02:15:20.840Z,4.5
2019-01-02T02:16:21.549Z,4.5
2019-01-02T02:17:22.261Z,4.6
2019-01-02T02:18:22.972Z,4.5
2019-01-02T02:19:23.731Z,4.6
2019-01-02T02:20:24.438Z,4.5
2019-01-02T02:21:25.158Z,4.6
2019-01-02T02:22:25.877Z,4.5
2019-01-02T02:23:26.587Z,4.5
2019-01-02T02:24:27.389Z,4.5
2019-01-02T02:25:28.093Z,4.6
2019-01-02T02:26:28.803Z,4.6
2019-01-02T02:27:29.508Z,4.6
2019-01-02T02:28:30.218Z,4.6
2019-01-02T02:29:30.985Z,4.6
2019-01-02T02:30:31.699Z,4.5
2019-01-02T02:31:32.406Z,4.6
2019-01-02T02:32:33.109Z,4.6
2019-01-02T02:33:33.834Z,4.5
2019-01-02T02:34:34.543Z,4.6
2019-01-02T02:35:35.253Z,4.6
2019-01-02T02:36:35.960Z,4.5
2019-01-02T02:37:36.661Z,4.5
2019-01-02T02:38:37.373Z,4.5
2019-01-02T02:39:38.080Z,4.4
2019-01-02T02:40:38.793Z,4.5
2019-01-02T02:41:39.503Z,4.5
2019-01-02T02:42:40.269Z,4.5
2019-01-02T02:43:40.977Z,4.4
2019-01-02T02:44:41.690Z,4.4
2019-01-02T02:45:42.395Z,4.5
2019-01-02T02:46:43.103Z,4.4
2019-01-02T02:47:43.821Z,4.4
2019-01-02T02:48:44.533Z,4.4
2019-01-02T02:49:45.250Z,4.4
2019-01-02T02:50:45.971Z,4.5
2019-01-02T02:51:46.724Z,4.4
2019-01-02T02:52:47.432Z,4.5
2019-01-02T02:53:48.143Z,4.4
2019-01-02T02:54:48.857Z,4.5
2019-01-02T02:55:49.577Z,4.5
2019-01-02T02:56:50.287Z,4.4
2019-01-02T02:57:50.987Z,4.5
2019-01-02T02:58:51.693Z,4.6
2019-01-02T02:59:52.413Z,4.6
2019-01-02T03:00:53.132Z,4.6
2019-01-02T03:01:53.844Z,4.6
2019-01-02T03:02:54.551Z,4.7
2019-01-02T03:03:55.313Z,4.7
2019-01-02T03:04:56.025Z,4.6
2019-01-02T03:05:56.736Z,4.6
2019-01-02T03:06:57.445Z,4.6
2019-01-02T03:07:58.153Z,4.6
2019-01-02T03:08:58.965Z,4.7
2019-01-02T03:09:59.668Z,4.6
2019-01-02T03:11:00.373Z,4.6
2019-01-02T03:12:01.084Z,4.6
2019-01-02T03:13:01.789Z,4.6
2019-01-02T03:14:02.646Z,4.6
2019-01-02T03:15:03.414Z,4.6
2019-01-02T03:16:04.148Z,4.6
2019-01-02T03:17:04.889Z,4.7
2019-01-02T03:18:05.603Z,4.8
2019-01-02T03:19:06.315Z,4.7
2019-01-02T03:20:07.034Z,4.8
2019-01-02T03:21:07.752Z,4.7
2019-01-02T03:22:08.572Z,4.7
2019-01-02T03:23:09.282Z,4.7
2019-01-02T03:24:10.260Z,4.7
2019-01-02T03:25:10.971Z,4.7
2019-01-02T03:26:11.685Z,4.6
2019-01-02T03:27:12.396Z,4.6
2019-01-02T03:28:13.108Z,4.6
2019-01-02T03:29:13.831Z,4.6
2019-01-02T03:30:14.547Z,4.6
2019-01-02T03:31:15.259Z,4.6
2019-01-02T03:32:16.067Z,4.5
2019-01-02T03:33:16.785Z,4.6
2019-01-02T03:34:17.498Z,4.6
2019-01-02T03:35:18.213Z,4.6
2019-01-02T03:36:18.939Z,4.6
2019-01-02T03:37:19.644Z,4.6
2019-01-02T03:38:20.353Z,4.5
2019-01-02T03:39:21.058Z,4.5
2019-01-02T03:40:22.025Z,4.5
2019-01-02T03:41:22.725Z,4.5
2019-01-02T03:42:23.460Z,4.6
2019-01-02T03:43:24.166Z,4.6
2019-01-02T03:44:24.887Z,4.5
2019-01-02T03:45:25.613Z,4.5
2019-01-02T03:46:26.323Z,4.5
2019-01-02T03:47:27.037Z,4.5
2019-01-02T03:48:27.740Z,4.6
2019-01-02T03:49:28.459Z,4.6
2019-01-02T03:50:29.170Z,4.6
2019-01-02T03:51:29.886Z,4.7
2019-01-02T03:52:30.594Z,4.6
2019-01-02T03:53:31.319Z,4.6
2019-01-02T03:54:32.020Z,4.6
2019-01-02T03:55:34.077Z,4.6
2019-01-02T03:56:33.497Z,4.6
2019-01-02T03:57:34.208Z,4.6
2019-01-02T03:58:34.930Z,4.6
2019-01-02T03:59:35.648Z,4.7
2019-01-02T04:00:36.613Z,4.6
2019-01-02T04:01:37.309Z,4.6
2019-01-02T04:02:38.017Z,4.7
2019-01-02T04:03:38.770Z,4.7
2019-01-02T04:04:39.487Z,4.7
2019-01-02T04:05:40.209Z,4.7
2019-01-02T04:06:40.916Z,4.7
2019-01-02T04:07:41.621Z,4.8
2019-01-02T04:08:42.338Z,4.8
2019-01-02T04:09:43.041Z,4.7
2019-01-02T04:10:43.759Z,4.7
2019-01-02T04:11:44.473Z,4.7
2019-01-02T04:12:45.175Z,4.6
2019-01-02T04:13:45.902Z,4.7
2019-01-02T04:14:46.621Z,4.7
2019-01-02T04:15:47.323Z,4.8
2019-01-02T04:16:48.040Z,4.8
2019-01-02T04:17:48.772Z,4.8
2019-01-02T04:18:49.489Z,4.7
2019-01-02T04:19:50.247Z,4.7
2019-01-02T04:20:50.961Z,4.7
2019-01-02T04:21:51.669Z,4.8
2019-01-02T04:22:52.393Z,4.7
2019-01-02T04:23:53.101Z,4.7
2019-01-02T04:24:53.811Z,4.7
2019-01-02T04:25:54.520Z,4.6
2019-01-02T04:26:55.246Z,4.6
2019-01-02T04:27:55.956Z,4.6
2019-01-02T04:28:56.661Z,4.5
2019-01-02T04:29:57.436Z,4.6
2019-01-02T04:30:58.147Z,4.6
2019-01-02T04:31:58.862Z,4.6
2019-01-02T04:32:59.569Z,4.6
2019-01-02T04:34:00.335Z,4.5
2019-01-02T04:35:01.059Z,4.5
2019-01-02T04:36:01.768Z,4.5
2019-01-02T04:37:02.480Z,4.6
2019-01-02T04:38:03.184Z,4.7
2019-01-02T04:39:03.889Z,4.7
2019-01-02T04:40:04.609Z,4.7
2019-01-02T04:41:05.321Z,4.7
2019-01-02T04:42:06.034Z,4.8
2019-01-02T04:43:06.762Z,4.7
2019-01-02T04:44:07.467Z,4.6
2019-01-02T04:45:08.169Z,4.7
2019-01-02T04:46:08.989Z,4.6
2019-01-02T04:47:09.701Z,4.6
2019-01-02T04:48:10.412Z,4.6
2019-01-02T04:49:11.120Z,4.5
2019-01-02T04:50:11.844Z,4.5
2019-01-02T04:51:12.618Z,4.5
2019-01-02T04:52:13.330Z,4.5
2019-01-02T04:53:14.040Z,4.4
2019-01-02T04:54:14.752Z,4.4
2019-01-02T04:55:15.482Z,4.3
2019-01-02T04:56:16.194Z,4.3
2019-01-02T04:57:16.896Z,4.3
2019-01-02T04:58:17.612Z,4.2
2019-01-02T04:59:18.340Z,4.3
2019-01-02T05:00:19.049Z,4.2
2019-01-02T05:01:19.852Z,4.2
2019-01-02T05:02:20.563Z,4.1
2019-01-02T05:03:21.278Z,4.1
2019-01-02T05:04:21.985Z,4.1
2019-01-02T05:05:22.710Z,4.0
2019-01-02T05:06:23.424Z,4.1
2019-01-02T05:07:24.138Z,4.1
2019-01-02T05:08:24.848Z,4.1
2019-01-02T05:09:25.568Z,4.1
2019-01-02T05:10:26.275Z,4.1
2019-01-02T05:11:26.999Z,4.0
2019-01-02T05:12:27.711Z,3.9
2019-01-02T05:13:28.424Z,3.8
2019-01-02T05:14:29.136Z,3.9
2019-01-02T05:15:29.843Z,3.9
2019-01-02T05:16:30.549Z,3.9
2019-01-02T05:17:31.267Z,3.8
2019-01-02T05:18:31.969Z,3.9
2019-01-02T05:19:32.688Z,4.0
2019-01-02T05:20:33.402Z,4.0
2019-01-02T05:21:34.120Z,3.9
2019-01-02T05:22:34.836Z,3.8
2019-01-02T05:23:35.595Z,3.9
2019-01-02T05:24:36.314Z,3.8
2019-01-02T05:25:37.032Z,3.9
2019-01-02T05:26:37.743Z,4.0
2019-01-02T05:27:38.456Z,4.0
2019-01-02T05:28:39.170Z,4.0
2019-01-02T05:29:39.883Z,4.1
2019-01-02T05:30:40.642Z,4.1
2019-01-02T05:31:41.348Z,4.3
2019-01-02T05:32:42.299Z,4.4
2019-01-02T05:33:43.258Z,4.3
2019-01-02T05:34:43.974Z,4.3
2019-01-02T05:35:44.936Z,4.3
2019-01-02T05:36:45.645Z,4.3
2019-01-02T05:37:46.367Z,4.4
2019-01-02T05:38:47.078Z,4.4
2019-01-02T05:39:47.782Z,4.4
2019-01-02T05:40:48.504Z,4.5
2019-01-02T05:41:49.206Z,4.4
2019-01-02T05:42:49.929Z,4.4
2019-01-02T05:43:50.635Z,4.3
2019-01-02T05:44:51.344Z,4.3
2019-01-02T05:45:52.049Z,4.3
2019-01-02T05:46:52.764Z,4.3
2019-01-02T05:47:53.725Z,4.2
2019-01-02T05:48:54.437Z,4.1
2019-01-02T05:49:55.156Z,4.2
2019-01-02T05:50:55.869Z,4.1
2019-01-02T05:51:56.580Z,4.1
2019-01-02T05:52:57.281Z,4.0
2019-01-02T05:53:57.989Z,4.1
2019-01-02T05:54:58.702Z,4.1
2019-01-02T05:55:59.419Z,4.1
2019-01-02T05:57:00.127Z,4.1
2019-01-02T05:58:00.940Z,4.1
2019-01-02T05:59:01.655Z,4.1
2019-01-02T06:00:02.366Z,4.2
2019-01-02T06:01:03.354Z,4.3
2019-01-02T06:02:04.062Z,4.3
2019-01-02T06:03:04.778Z,4.3
2019-01-02T06:04:05.490Z,4.3
2019-01-02T06:05:06.448Z,4.4
2019-01-02T06:06:07.150Z,4.3
2019-01-02T06:07:07.864Z,4.3
2019-01-02T06:08:08.678Z,4.4
2019-01-02T06:09:09.407Z,4.4
2019-01-02T06:10:10.119Z,4.4
2019-01-02T06:11:10.852Z,4.5
2019-01-02T06:12:11.558Z,4.4
2019-01-02T06:13:12.275Z,4.4
2019-01-02T06:14:13.233Z,4.4
2019-01-02T06:15:13.977Z,4.4
2019-01-02T06:16:14.656Z,4.4
2019-01-02T06:17:15.371Z,4.4
2019-01-02T06:18:16.082Z,4.3
2019-01-02T06:19:16.816Z,4.4
2019-01-02T06:20:17.523Z,4.3
2019-01-02T06:21:18.238Z,4.3
2019-01-02T06:22:18.961Z,4.3
2019-01-02T06:23:19.660Z,4.3
2019-01-02T06:24:20.374Z,4.4
2019-01-02T06:25:21.096Z,4.4
2019-01-02T06:26:21.807Z,4.3
2019-01-02T06:27:22.519Z,4.4
2019-01-02T06:28:23.232Z,4.3
2019-01-02T06:29:23.946Z,4.3
2019-01-02T06:30:24.664Z,4.4
2019-01-02T06:31:25.382Z,4.4
2019-01-02T06:32:26.088Z,4.4
2019-01-02T06:33:26.799Z,4.4
2019-01-02T06:34:27.527Z,4.3
2019-01-02T06:35:28.226Z,4.4
2019-01-02T06:36:28.942Z,4.4
2019-01-02T06:37:29.651Z,4.4
2019-01-02T06:38:30.616Z,4.4
2019-01-02T06:39:31.333Z,4.4
2019-01-02T06:40:32.097Z,4.4
2019-01-02T06:41:32.810Z,4.4
2019-01-02T06:42:33.510Z,4.4
2019-01-02T06:43:34.220Z,4.5
2019-01-02T06:44:35.189Z,4.4
2019-01-02T06:45:35.903Z,4.5
2019-01-02T06:46:36.622Z,4.6
2019-01-02T06:47:37.327Z,4.5
2019-01-02T06:48:38.029Z,4.5
2019-01-02T06:49:38.740Z,4.5
2019-01-02T06:50:39.556Z,4.5
2019-01-02T06:51:40.286Z,4.5
2019-01-02T06:52:40.997Z,4.5
2019-01-02T06:53:41.712Z,4.5
2019-01-02T06:54:42.801Z,4.5
2019-01-02T06:55:43.546Z,4.5
2019-01-02T06:56:44.266Z,4.5
2019-01-02T06:57:44.980Z,4.5
2019-01-02T06:58:45.693Z,4.4
2019-01-02T06:59:46.399Z,4.4
2019-01-02T07:00:47.115Z,4.4
2019-01-02T07:01:48.079Z,4.4
2019-01-02T07:02:48.789Z,4.3
2019-01-02T07:03:49.761Z,4.4
2019-01-02T07:04:50.470Z,4.3
2019-01-02T07:05:51.198Z,4.3
2019-01-02T07:06:51.923Z,4.2
2019-01-02T07:07:52.642Z,4.2
2019-01-02T07:08:53.355Z,4.1
2019-01-02T07:09:54.317Z,4.1
2019-01-02T07:10:55.031Z,4.0
2019-01-02T07:11:55.746Z,4.1
2019-01-02T07:12:56.465Z,4.1
2019-01-02T07:13:57.177Z,4.1
2019-01-02T07:14:57.906Z,4.0
2019-01-02T07:15:58.621Z,3.9
2019-01-02T07:16:59.329Z,4.0
2019-01-02T07:18:00.050Z,4.0
2019-01-02T07:19:00.770Z,3.8
2019-01-02T07:20:01.754Z,3.9
2019-01-02T07:21:02.566Z,3.8
2019-01-02T07:22:03.286Z,3.8
2019-01-02T07:23:04.005Z,3.8
2019-01-02T07:24:04.731Z,3.7
2019-01-02T07:25:05.443Z,3.8
2019-01-02T07:26:06.160Z,3.8
2019-01-02T07:27:06.872Z,3.8
2019-01-02T07:28:07.580Z,3.6
2019-01-02T07:29:08.302Z,3.6
2019-01-02T07:30:09.000Z,3.8
2019-01-02T07:31:09.719Z,3.8
2019-01-02T07:32:10.441Z,3.7
2019-01-02T07:33:11.165Z,3.8
2019-01-02T07:34:11.878Z,3.9
2019-01-02T07:35:12.599Z,3.8
2019-01-02T07:36:13.311Z,3.8
2019-01-02T07:37:14.029Z,3.8
2019-01-02T07:38:15.089Z,3.7
2019-01-02T07:39:15.798Z,3.6
2019-01-02T07:40:16.512Z,3.7
2019-01-02T07:41:17.237Z,3.7
2019-01-02T07:42:17.958Z,3.7
2019-01-02T07:43:18.794Z,3.8
2019-01-02T07:44:19.545Z,3.8
2019-01-02T07:45:20.531Z,3.8
2019-01-02T07:46:21.232Z,3.9
2019-01-02T07:47:21.952Z,3.9
2019-01-02T07:48:22.667Z,3.9
2019-01-02T07:49:23.388Z,3.8
2019-01-02T07:50:24.102Z,3.8
2019-01-02T07:51:24.823Z,3.8
2019-01-02T07:52:25.549Z,3.9
2019-01-02T07:53:26.269Z,3.7
2019-01-02T07:54:26.987Z,3.8
2019-01-02T07:55:27.705Z,3.7
2019-01-02T07:56:28.430Z,3.7
2019-01-02T07:57:29.137Z,3.7
2019-01-02T07:58:29.859Z,3.8
2019-01-02T07:59:30.576Z,3.8
2019-01-02T08:00:31.385Z,3.8
2019-01-02T08:01:32.106Z,3.8
2019-01-02T08:02:32.826Z,3.7
2019-01-02T08:03:33.544Z,3.7
2019-01-02T08:04:34.256Z,3.7
2019-01-02T08:05:35.022Z,3.8
2019-01-02T08:06:35.731Z,3.8
2019-01-02T08:07:36.462Z,3.8
2019-01-02T08:08:37.219Z,3.8
2019-01-02T08:09:37.889Z,3.6
2019-01-02T08:10:38.603Z,3.7
2019-01-02T08:11:39.319Z,3.7
2019-01-02T08:12:40.029Z,3.7
2019-01-02T08:13:41.004Z,3.6
2019-01-02T08:14:41.491Z,3.7
2019-01-02T08:15:42.210Z,3.7
2019-01-02T08:16:43.165Z,3.6
2019-01-02T08:17:43.943Z,3.6
2019-01-02T08:18:44.657Z,3.6
2019-01-02T08:19:45.376Z,3.7
2019-01-02T08:20:46.100Z,3.6
2019-01-02T08:21:46.814Z,3.7
2019-01-02T08:22:47.589Z,3.6
2019-01-02T08:23:48.309Z,3.6
2019-01-02T08:24:49.027Z,3.5
2019-01-02T08:25:49.737Z,3.6
2019-01-02T08:26:50.452Z,3.6
2019-01-02T08:27:51.167Z,3.6
2019-01-02T08:28:52.513Z,3.6
2019-01-02T08:29:52.590Z,3.6
2019-01-02T08:30:53.407Z,3.5
2019-01-02T08:31:54.120Z,3.6
2019-01-02T08:32:54.841Z,3.6
2019-01-02T08:33:55.572Z,3.6
2019-01-02T08:34:56.281Z,3.6
2019-01-02T08:35:57.094Z,3.5
2019-01-02T08:36:57.805Z,3.6
2019-01-02T08:37:58.517Z,3.6
2019-01-02T08:38:59.234Z,3.5
2019-01-02T08:39:59.941Z,3.6
2019-01-02T08:41:00.659Z,3.6
2019-01-02T08:42:01.380Z,3.7
2019-01-02T08:43:02.099Z,3.8
2019-01-02T08:44:02.814Z,3.7
2019-01-02T08:45:03.529Z,3.8
2019-01-02T08:46:04.301Z,3.8
2019-01-02T08:47:05.015Z,3.8
2019-01-02T08:48:05.737Z,3.8
2019-01-02T08:49:06.454Z,3.7
2019-01-02T08:50:07.173Z,3.8
2019-01-02T08:51:07.905Z,3.8
2019-01-02T08:52:08.616Z,3.7
2019-01-02T08:53:09.342Z,3.8
2019-01-02T08:54:10.056Z,3.7
2019-01-02T08:55:10.762Z,3.9
2019-01-02T08:56:11.491Z,3.9
2019-01-02T08:57:12.256Z,3.9
2019-01-02T08:58:12.969Z,3.9
2019-01-02T08:59:13.683Z,3.8
2019-01-02T09:00:14.399Z,3.9
2019-01-02T09:01:15.126Z,3.9
2019-01-02T09:02:15.906Z,3.9
2019-01-02T09:03:16.610Z,3.9
2019-01-02T09:04:17.333Z,4.0
2019-01-02T09:05:18.048Z,4.0
2019-01-02T09:06:18.769Z,3.9
2019-01-02T09:07:19.486Z,4.0
2019-01-02T09:08:20.217Z,4.1
2019-01-02T09:09:20.924Z,4.2
2019-01-02T09:10:21.635Z,4.1
2019-01-02T09:11:22.356Z,4.2
2019-01-02T09:12:23.076Z,4.3
2019-01-02T09:13:23.790Z,4.2
2019-01-02T09:14:24.507Z,4.3
2019-01-02T09:15:25.227Z,4.3
2019-01-02T09:16:25.949Z,4.2
2019-01-02T09:17:26.652Z,4.4
2019-01-02T09:18:27.418Z,4.4
2019-01-02T09:19:28.149Z,4.5
2019-01-02T09:20:28.873Z,4.4
2019-01-02T09:21:29.587Z,4.4
2019-01-02T09:22:30.307Z,4.5
2019-01-02T09:23:31.028Z,4.4
2019-01-02T09:24:31.745Z,4.5
2019-01-02T09:25:32.711Z,4.5
2019-01-02T09:26:33.436Z,4.6
2019-01-02T09:27:34.155Z,4.7
2019-01-02T09:28:34.867Z,4.6
2019-01-02T09:29:36.283Z,4.7
2019-01-02T09:30:36.324Z,4.8
2019-01-02T09:31:37.036Z,4.7
2019-01-02T09:32:37.753Z,4.7
2019-01-02T09:33:38.467Z,4.8
2019-01-02T09:34:39.188Z,4.7
2019-01-02T09:35:40.179Z,4.7
2019-01-02T09:36:40.975Z,4.8
2019-01-02T09:37:41.696Z,4.7
2019-01-02T09:38:42.413Z,4.8
2019-01-02T09:39:43.130Z,4.8
2019-01-02T09:40:43.923Z,4.8
2019-01-02T09:41:44.691Z,5.0
2019-01-02T09:42:45.420Z,4.9
2019-01-02T09:43:46.142Z,4.9
2019-01-02T09:44:46.851Z,5.0
2019-01-02T09:45:47.565Z,5.1
2019-01-02T09:46:48.336Z,5.2
2019-01-02T09:47:49.058Z,5.2
2019-01-02T09:48:49.768Z,5.2
2019-01-02T09:49:50.486Z,5.3
2019-01-02T09:50:51.219Z,5.4
2019-01-02T09:51:51.937Z,5.4
2019-01-02T09:52:52.755Z,5.5
2019-01-02T09:53:53.464Z,5.6
2019-01-02T09:54:54.183Z,5.6
2019-01-02T09:55:54.936Z,5.7
2019-01-02T09:56:55.915Z,5.7
2019-01-02T09:57:56.670Z,5.7
2019-01-02T09:58:57.397Z,5.8
2019-01-02T09:59:58.115Z,5.8
2019-01-02T10:00:58.839Z,5.8
2019-01-02T10:01:59.602Z,5.8
2019-01-02T10:03:00.358Z,5.8
2019-01-02T10:04:01.074Z,5.8
2019-01-02T10:05:01.797Z,5.8
2019-01-02T10:06:02.512Z,5.8
2019-01-02T10:07:03.221Z,5.7
2019-01-02T10:08:03.943Z,5.8
2019-01-02T10:09:04.657Z,5.7
2019-01-02T10:10:05.374Z,5.8
2019-01-02T10:11:06.087Z,5.7
2019-01-02T10:12:06.800Z,5.7
2019-01-02T10:13:07.515Z,5.8
2019-01-02T10:14:08.288Z,5.9
2019-01-02T10:15:09.004Z,5.8
2019-01-02T10:16:09.724Z,5.9
2019-01-02T10:17:10.436Z,5.9
2019-01-02T10:18:11.161Z,6.0
2019-01-02T10:19:12.030Z,5.9
2019-01-02T10:20:12.753Z,5.9
2019-01-02T10:21:13.465Z,5.9
2019-01-02T10:22:14.185Z,5.7
2019-01-02T10:23:14.915Z,5.8
2019-01-02T10:24:15.721Z,5.9
2019-01-02T10:25:16.437Z,5.9
2019-01-02T10:26:17.150Z,6.0
2019-01-02T10:27:17.876Z,6.0
2019-01-02T10:28:18.585Z,5.9
2019-01-02T10:29:19.309Z,6.0
2019-01-02T10:30:20.030Z,5.9
2019-01-02T10:31:20.743Z,5.9
2019-01-02T10:32:21.452Z,5.9
2019-01-02T10:33:22.159Z,6.0
2019-01-02T10:34:22.918Z,5.9
2019-01-02T10:35:24.325Z,5.9
2019-01-02T10:36:25.042Z,6.0
2019-01-02T10:37:25.758Z,6.0
2019-01-02T10:38:27.282Z,6.1
2019-01-02T10:39:28.898Z,6.1
2019-01-02T10:40:29.669Z,6.3
2019-01-02T10:41:30.438Z,6.2
2019-01-02T10:42:31.148Z,6.3
2019-01-02T10:43:31.884Z,6.4
2019-01-02T10:44:32.603Z,6.5
2019-01-02T10:45:33.319Z,6.5
2019-01-02T10:46:34.180Z,6.7
2019-01-02T10:47:34.915Z,6.5
2019-01-02T10:48:35.625Z,6.6
2019-01-02T10:49:36.396Z,6.6
2019-01-02T10:50:37.099Z,6.7
2019-01-02T10:51:37.980Z,6.6
2019-01-02T10:52:38.689Z,6.6
2019-01-02T10:53:39.413Z,6.6
2019-01-02T10:54:40.128Z,6.6
2019-01-02T10:55:40.845Z,6.6
2019-01-02T10:56:41.708Z,6.8
2019-01-02T10:57:42.431Z,6.9
2019-01-02T10:58:43.144Z,6.9
2019-01-02T10:59:44.263Z,7.0
2019-01-02T11:00:45.675Z,7.0
2019-01-02T11:01:47.855Z,7.2
2019-01-02T11:02:48.609Z,7.3
2019-01-02T11:03:49.617Z,7.3
2019-01-02T11:04:50.613Z,7.4
2019-01-02T11:05:51.583Z,7.3
2019-01-02T11:06:52.636Z,7.4
2019-01-02T11:07:53.350Z,7.4
2019-01-02T11:08:54.068Z,7.1
2019-01-02T11:09:54.786Z,7.2
2019-01-02T11:10:55.605Z,7.2
2019-01-02T11:11:56.318Z,7.3
2019-01-02T11:12:57.044Z,7.2
2019-01-02T11:13:57.765Z,7.2
2019-01-02T11:14:58.477Z,7.2
2019-01-02T11:15:59.202Z,7.1
2019-01-02T11:16:59.923Z,7.2
2019-01-02T11:18:00.639Z,7.0
2019-01-02T11:19:01.362Z,7.2
2019-01-02T11:20:02.078Z,7.2
2019-01-02T11:21:02.785Z,7.2
2019-01-02T11:22:03.499Z,7.1
2019-01-02T11:23:04.260Z,7.1
2019-01-02T11:24:04.979Z,7.2
2019-01-02T11:25:06.073Z,7.2
2019-01-02T11:26:06.886Z,7.2
2019-01-02T11:27:07.600Z,7.2
2019-01-02T11:28:08.440Z,7.0
2019-01-02T11:29:09.163Z,7.0
2019-01-02T11:30:09.925Z,6.9
2019-01-02T11:31:10.625Z,6.9
2019-01-02T11:32:11.366Z,6.9
2019-01-02T11:33:12.074Z,6.9
2019-01-02T11:34:12.785Z,6.9
2019-01-02T11:35:13.507Z,7.0
2019-01-02T11:36:14.339Z,7.0
2019-01-02T11:37:15.064Z,7.1
2019-01-02T11:38:15.774Z,7.2
2019-01-02T11:39:16.556Z,7.2
2019-01-02T11:40:17.269Z,7.2
2019-01-02T11:41:17.979Z,7.1
2019-01-02T11:42:18.699Z,7.1
2019-01-02T11:43:19.407Z,6.9
2019-01-02T11:44:21.335Z,6.9
2019-01-02T11:45:21.278Z,7.0
2019-01-02T11:46:21.992Z,7.0
2019-01-02T11:47:22.712Z,7.0
2019-01-02T11:48:23.437Z,7.1
2019-01-02T11:49:24.158Z,7.2
2019-01-02T11:50:24.867Z,7.2
2019-01-02T11:51:25.583Z,7.2
2019-01-02T11:52:26.324Z,7.3
2019-01-02T11:53:27.039Z,7.4
2019-01-02T11:54:27.759Z,7.5
2019-01-02T11:55:28.470Z,7.6
2019-01-02T11:56:29.192Z,7.4
2019-01-02T11:57:29.930Z,7.5
2019-01-02T11:58:30.664Z,7.6
2019-01-02T11:59:31.409Z,7.4
2019-01-02T12:00:32.156Z,7.3
2019-01-02T12:01:32.869Z,7.3
2019-01-02T12:02:34.334Z,7.4
2019-01-02T12:03:34.293Z,7.4
2019-01-02T12:04:35.056Z,7.3
2019-01-02T12:05:35.760Z,7.3
2019-01-02T12:06:36.473Z,7.3
2019-01-02T12:07:37.206Z,7.3
2019-01-02T12:08:37.930Z,7.4
2019-01-02T12:09:38.652Z,7.5
2019-01-02T12:10:39.469Z,7.5
2019-01-02T12:11:40.297Z,7.6
2019-01-02T12:12:41.021Z,7.7
2019-01-02T12:13:41.743Z,7.5
2019-01-02T12:14:42.561Z,7.4
2019-01-02T12:15:43.262Z,7.3
2019-01-02T12:16:44.666Z,7.6
2019-01-02T12:17:45.705Z,7.5
2019-01-02T12:18:46.459Z,7.7
2019-01-02T12:19:48.217Z,7.6
2019-01-02T12:20:49.276Z,7.6
2019-01-02T12:21:50.611Z,7.6
2019-01-02T12:22:52.720Z,7.5
2019-01-02T12:23:54.664Z,7.4
2019-01-02T12:24:56.096Z,7.2
2019-01-02T12:25:58.137Z,7.2
2019-01-02T12:27:00.097Z,7.1
2019-01-02T12:28:02.244Z,7.1
2019-01-02T12:29:04.271Z,7.0
2019-01-02T12:30:06.114Z,6.8
2019-01-02T12:31:07.157Z,6.8
2019-01-02T12:32:07.870Z,6.8
2019-01-02T12:33:08.593Z,6.6
2019-01-02T12:34:09.567Z,6.6
2019-01-02T12:35:10.278Z,6.6
2019-01-02T12:36:11.004Z,6.5
2019-01-02T12:37:11.704Z,6.5
2019-01-02T12:38:12.465Z,6.5
2019-01-02T12:39:13.182Z,6.3
2019-01-02T12:40:13.918Z,6.2
2019-01-02T12:41:14.626Z,6.2
2019-01-02T12:42:15.345Z,6.1
2019-01-02T12:43:16.060Z,6.1
2019-01-02T12:44:16.781Z,6.1
2019-01-02T12:45:17.536Z,6.2
2019-01-02T12:46:18.248Z,6.2
2019-01-02T12:47:18.961Z,6.1
2019-01-02T12:48:19.677Z,6.1
2019-01-02T12:49:20.428Z,6.0
2019-01-02T12:50:21.238Z,6.1
2019-01-02T12:51:21.970Z,5.9
2019-01-02T12:52:22.676Z,5.9
2019-01-02T12:53:23.402Z,5.9
2019-01-02T12:54:24.175Z,6.0
2019-01-02T12:55:24.892Z,5.9
2019-01-02T12:56:25.611Z,5.8
2019-01-02T12:57:26.328Z,5.8
2019-01-02T12:58:27.053Z,5.7
2019-01-02T12:59:27.778Z,5.7
2019-01-02T13:00:28.537Z,5.7
2019-01-02T13:01:29.244Z,5.6
2019-01-02T13:02:29.978Z,5.6
2019-01-02T13:03:30.678Z,5.6
2019-01-02T13:04:31.795Z,5.6
2019-01-02T13:05:33.840Z,5.4
2019-01-02T13:06:33.648Z,5.4
2019-01-02T13:07:34.365Z,5.4
2019-01-02T13:08:35.071Z,5.4
2019-01-02T13:09:35.796Z,5.4
2019-01-02T13:10:36.510Z,5.4
2019-01-02T13:11:37.274Z,5.2
2019-01-02T13:12:37.990Z,5.2
2019-01-02T13:13:38.761Z,5.2
2019-01-02T13:14:40.740Z,5.1
2019-01-02T13:15:41.657Z,5.2
2019-01-02T13:16:42.421Z,5.1
2019-01-02T13:17:43.133Z,5.2
2019-01-02T13:18:43.865Z,5.2
2019-01-02T13:19:44.593Z,5.1
2019-01-02T13:20:45.301Z,5.0
2019-01-02T13:21:46.032Z,5.0
2019-01-02T13:22:46.742Z,4.9
2019-01-02T13:23:47.630Z,4.9
2019-01-02T13:24:48.617Z,4.9
2019-01-02T13:25:49.372Z,4.9
2019-01-02T13:26:50.078Z,4.9
2019-01-02T13:27:50.812Z,5.0
2019-01-02T13:28:51.619Z,4.9
2019-01-02T13:29:52.594Z,4.9
2019-01-02T13:30:53.315Z,5.0
2019-01-02T13:31:54.046Z,5.0
2019-01-02T13:32:54.750Z,5.0
2019-01-02T13:33:55.610Z,4.9
2019-01-02T13:34:56.315Z,4.9
2019-01-02T13:35:57.042Z,4.8
2019-01-02T13:36:57.753Z,4.9
2019-01-02T13:37:58.475Z,4.9
2019-01-02T13:38:59.189Z,4.9
2019-01-02T13:39:59.906Z,4.9
2019-01-02T13:41:00.612Z,4.8
2019-01-02T13:42:01.355Z,4.8
2019-01-02T13:43:02.318Z,4.7
2019-01-02T13:44:03.287Z,4.8
2019-01-02T13:45:04.253Z,4.8
2019-01-02T13:46:05.009Z,4.8
2019-01-02T13:48:21.448Z,4.7
2019-01-02T13:49:22.162Z,4.7
2019-01-02T13:50:22.892Z,4.7
2019-01-02T13:51:23.603Z,4.7
2019-01-02T13:52:24.361Z,4.8
2019-01-02T13:53:25.080Z,4.7
2019-01-02T13:54:26.740Z,4.6
2019-01-02T13:55:27.658Z,4.6
2019-01-02T13:56:28.382Z,4.6
2019-01-02T13:57:29.199Z,4.6
2019-01-02T13:58:29.946Z,4.6